Time;durP1;ratioP1;P1;durP2;ratioP2;P2;SDS_P1;SDS_P2;PMS_P1;PMS_P2;Temp;Humidity;BMP_temperature;BMP_pressure;BME280_temperature;BME280_humidity;BME280_pressure;Samples;Min_cycle;Max_cycle;Signal;HPM_P1;HPM_P2
2021/01/28 00:02:43;;;;;;;39.67;19.90;;;8.00;99.90;;;;;;6302485;22;20184;-96
2021/01/28 00:07:52;;;;;;;33.50;18.80;;;8.00;99.90;;;;;;6305664;22;20176;-96
2021/01/28 00:10:30;;;;;;;37.30;19.37;;;7.90;99.90;;;;;;6304191;22;20228;-93
2021/01/28 00:13:00;;;;;;;35.30;18.47;;;7.90;99.90;;;;;;6266114;22;20205;-96
2021/01/28 00:15:33;;;;;;;31.73;17.53;;;7.90;99.90;;;;;;6297361;22;20197;-96
2021/01/28 00:23:41;;;;;;;26.80;15.87;;;8.00;99.90;;;;;;6282094;22;20253;-96
2021/01/28 00:26:40;;;;;;;27.57;16.73;;;8.00;99.90;;;;;;6298706;22;20181;-95
2021/01/28 00:32:50;;;;;;;29.90;16.63;;;8.00;99.90;;;;;;6303710;22;20213;-96
2021/01/28 00:35:22;;;;;;;32.83;16.77;;;7.90;99.90;;;;;;6305252;22;20197;-96
2021/01/28 00:40:38;;;;;;;28.17;16.07;;;7.90;99.90;;;;;;6298836;22;20177;-96
2021/01/28 00:43:11;;;;;;;27.30;16.20;;;7.90;99.90;;;;;;6298834;22;20212;-96
2021/01/28 00:45:43;;;;;;;26.50;15.40;;;7.90;99.90;;;;;;6304497;22;20197;-96
2021/01/28 00:48:24;;;;;;;33.73;16.73;;;7.90;99.90;;;;;;6301711;22;20220;-96
2021/01/28 00:54:10;;;;;;;26.57;16.40;;;7.90;99.90;;;;;;6303164;22;20159;-96
2021/01/28 00:56:38;;;;;;;30.37;16.93;;;7.90;99.90;;;;;;6304241;22;20196;-94
2021/01/28 00:59:07;;;;;;;27.63;15.67;;;7.90;99.90;;;;;;6303297;22;20255;-94
2021/01/28 01:05:01;;;;;;;28.03;15.80;;;7.80;99.90;;;;;;6327290;22;20225;-94
2021/01/28 01:19:05;;;;;;;26.23;14.83;;;7.90;99.90;;;;;;6323567;22;20233;-96
2021/01/28 01:21:42;;;;;;;22.10;14.83;;;7.90;99.90;;;;;;6315129;22;20193;-93
2021/01/28 01:24:28;;;;;;;28.07;15.10;;;7.90;99.90;;;;;;6300139;22;20196;-96
2021/01/28 01:29:33;;;;;;;29.92;17.55;;;7.70;99.90;;;;;;6301313;22;20422;-95
2021/01/28 01:32:32;;;;;;;24.57;15.03;;;7.80;99.90;;;;;;6280538;22;20246;-96
2021/01/28 01:37:55;;;;;;;23.00;13.40;;;7.80;99.90;;;;;;6368141;22;20203;-90
2021/01/28 01:40:45;;;;;;;20.47;13.37;;;7.90;99.90;;;;;;6368578;22;20179;-89
2021/01/28 01:46:14;;;;;;;19.63;12.47;;;7.90;99.90;;;;;;6283279;22;20213;-93
2021/01/28 01:58:54;;;;;;;17.00;13.07;;;7.80;99.90;;;;;;6300711;22;20257;-96
2021/01/28 02:01:41;;;;;;;19.13;12.47;;;7.90;99.90;;;;;;6305584;22;20199;-96
2021/01/28 02:07:20;;;;;;;26.20;15.03;;;8.20;99.90;;;;;;6275734;22;20161;-93
2021/01/28 02:12:52;;;;;;;22.27;13.83;;;8.10;99.90;;;;;;6369499;22;20175;-96
2021/01/28 02:15:55;;;;;;;20.53;13.67;;;7.90;99.90;;;;;;6334285;22;20231;-94
2021/01/28 02:22:11;;;;;;;20.67;12.57;;;7.90;99.90;;;;;;6289430;22;20201;-93
2021/01/28 02:24:49;;;;;;;22.07;12.83;;;7.90;99.90;;;;;;6306172;22;20192;-94
2021/01/28 02:27:35;;;;;;;21.10;13.20;;;7.70;99.90;;;;;;6307475;22;20158;-96
2021/01/28 02:32:47;;;;;;;21.03;13.67;;;7.80;99.90;;;;;;6304386;22;20260;-92
2021/01/28 02:35:14;;;;;;;18.57;13.40;;;7.80;99.90;;;;;;6302806;22;20215;-94
2021/01/28 02:37:41;;;;;;;21.60;12.63;;;7.80;99.90;;;;;;6306814;22;20219;-95
2021/01/28 02:40:10;;;;;;;21.83;13.50;;;7.80;99.90;;;;;;6278648;22;20209;-93
2021/01/28 02:43:12;;;;;;;18.50;12.50;;;7.90;99.90;;;;;;6307509;22;20199;-93
2021/01/28 02:49:03;;;;;;;17.53;12.80;;;7.70;99.90;;;;;;6305935;22;20157;-94
2021/01/28 02:51:30;;;;;;;17.37;11.83;;;7.70;99.90;;;;;;6305424;22;20276;-95
2021/01/28 02:54:15;;;;;;;18.73;11.87;;;7.60;99.90;;;;;;6303068;22;20191;-94
2021/01/28 02:59:37;;;;;;;13.97;11.40;;;7.80;99.90;;;;;;6265351;22;20181;-96
2021/01/28 03:02:34;;;;;;;18.03;12.73;;;7.80;99.90;;;;;;6273815;23;20178;-96
2021/01/28 03:07:55;;;;;;;22.67;15.90;;;7.90;99.90;;;;;;6264345;23;20390;-96
2021/01/28 03:10:42;;;;;;;17.60;13.07;;;7.90;99.90;;;;;;6273509;23;20178;-96
2021/01/28 03:13:09;;;;;;;15.03;12.03;;;8.10;99.90;;;;;;6246319;23;20185;-96
2021/01/28 03:15:45;;;;;;;18.67;12.33;;;8.00;99.90;;;;;;6272950;22;20218;-96
2021/01/28 03:21:27;;;;;;;15.27;11.10;;;8.10;99.90;;;;;;6304340;22;20193;-96
2021/01/28 03:24:19;;;;;;;16.07;11.70;;;8.10;99.90;;;;;;6306220;22;20237;-96
2021/01/28 03:27:05;;;;;;;16.70;11.23;;;8.00;99.90;;;;;;6302140;22;20301;-96
2021/01/28 03:29:31;;;;;;;13.87;11.20;;;8.00;99.90;;;;;;6303868;22;20177;-96
2021/01/28 03:32:02;;;;;;;15.53;12.10;;;8.00;99.90;;;;;;6278261;22;20292;-96
2021/01/28 03:34:38;;;;;;;17.60;11.37;;;8.00;99.90;;;;;;6304173;22;20192;-95
2021/01/28 03:37:26;;;;;;;13.47;11.00;;;8.10;99.90;;;;;;6305556;22;20200;-96
2021/01/28 03:39:53;;;;;;;15.67;11.03;;;8.10;99.90;;;;;;6304986;22;20219;-95
2021/01/28 03:45:00;;;;;;;13.50;11.17;;;8.10;99.90;;;;;;6305015;22;20231;-96
2021/01/28 03:47:33;;;;;;;16.27;10.37;;;8.10;99.90;;;;;;6304940;22;20196;-96
2021/01/28 03:50:01;;;;;;;14.70;10.53;;;8.00;99.90;;;;;;6304114;22;20161;-96
2021/01/28 03:52:34;;;;;;;14.47;9.63;;;8.10;99.90;;;;;;6305864;22;20156;-96
2021/01/28 03:55:17;;;;;;;13.30;10.07;;;8.00;99.90;;;;;;6303874;22;20223;-96
2021/01/28 03:57:46;;;;;;;11.23;9.77;;;8.00;99.90;;;;;;6305601;22;20181;-96
2021/01/28 04:00:17;;;;;;;14.23;9.57;;;8.00;99.90;;;;;;6303413;22;20172;-96
2021/01/28 04:05:40;;;;;;;11.13;9.73;;;8.00;99.90;;;;;;6300191;22;20210;-96
2021/01/28 04:08:11;;;;;;;12.57;9.27;;;8.00;99.90;;;;;;6304053;22;20181;-96
2021/01/28 04:10:39;;;;;;;10.43;9.33;;;8.00;99.90;;;;;;6277505;22;20204;-96
2021/01/28 04:13:06;;;;;;;13.93;11.95;;;8.00;99.90;;;;;;6303111;22;20426;-96
2021/01/28 04:15:33;;;;;;;10.67;9.13;;;8.00;99.90;;;;;;6302520;22;20197;-96
2021/01/28 04:18:00;;;;;;;9.90;8.80;;;8.00;99.90;;;;;;6300914;22;20189;-96
2021/01/28 04:20:29;;;;;;;10.67;9.67;;;8.00;99.90;;;;;;6274008;22;20170;-96
2021/01/28 04:22:57;;;;;;;12.93;9.97;;;8.00;99.90;;;;;;6302861;22;20166;-96
2021/01/28 04:25:24;;;;;;;10.27;9.27;;;8.00;99.90;;;;;;6303025;22;20197;-96
2021/01/28 04:27:51;;;;;;;10.40;9.27;;;8.10;99.90;;;;;;6303828;22;20160;-96
2021/01/28 04:31:07;;;;;;;9.50;8.50;;;8.10;99.90;;;;;;6303440;22;20184;-96
2021/01/28 04:33:35;;;;;;;9.23;8.33;;;8.10;99.90;;;;;;6303236;22;20183;-96
2021/01/28 04:38:59;;;;;;;11.03;8.83;;;8.10;99.90;;;;;;6305116;22;20192;-96
2021/01/28 04:41:28;;;;;;;13.53;8.60;;;8.10;99.90;;;;;;6305438;22;20189;-96
2021/01/28 04:47:04;;;;;;;9.30;8.40;;;8.10;99.90;;;;;;6273892;22;20177;-96
2021/01/28 04:50:06;;;;;;;10.00;8.57;;;8.10;99.90;;;;;;6292763;22;20196;-96
2021/01/28 04:52:40;;;;;;;12.77;8.47;;;8.20;99.90;;;;;;6294883;22;20216;-96
2021/01/28 04:55:41;;;;;;;9.27;8.37;;;8.10;99.90;;;;;;6284992;22;20212;-96
2021/01/28 04:58:29;;;;;;;9.27;8.40;;;8.10;99.90;;;;;;6298327;22;20193;-96
2021/01/28 05:06:33;;;;;;;8.53;7.73;;;8.10;99.90;;;;;;6300279;22;20207;-95
2021/01/28 05:33:24;;;;;;;9.33;8.00;;;8.10;99.90;;;;;;6336939;22;20190;-94
2021/01/28 05:49:05;;;;;;;9.73;7.70;;;8.30;99.90;;;;;;6296037;22;20252;-93
2021/01/28 06:46:31;;;;;;;7.63;6.93;;;8.40;99.90;;;;;;6305079;22;20195;-95
2021/01/28 07:52:03;;;;;;;9.53;6.90;;;9.50;99.90;;;;;;6215511;23;20212;-95
2021/01/28 08:04:26;;;;;;;7.50;6.90;;;9.80;99.90;;;;;;6228867;22;20209;-94
2021/01/28 08:07:38;;;;;;;7.83;7.00;;;9.90;99.90;;;;;;6245578;23;20177;-95
2021/01/28 08:30:31;;;;;;;6.30;4.77;;;10.10;99.90;;;;;;6120305;23;20212;-95
2021/01/28 08:50:52;;;;;;;5.77;5.37;;;10.70;99.90;;;;;;6031976;23;20226;-93
2021/01/28 08:57:09;;;;;;;5.63;5.13;;;10.60;99.90;;;;;;6218685;23;20258;-91
2021/01/28 09:13:00;;;;;;;6.43;5.83;;;10.80;99.90;;;;;;6165171;23;20195;-90
2021/01/28 09:18:44;;;;;;;5.17;4.77;;;10.80;99.90;;;;;;6228990;22;20210;-94
2021/01/28 09:21:13;;;;;;;5.70;5.30;;;10.80;99.90;;;;;;6219236;23;20171;-96
2021/01/28 09:23:55;;;;;;;4.37;4.10;;;10.70;99.90;;;;;;6219220;23;20241;-95
2021/01/28 09:26:24;;;;;;;5.30;4.80;;;10.60;99.90;;;;;;6190372;23;20199;-94
2021/01/28 09:28:52;;;;;;;5.20;4.70;;;10.70;99.90;;;;;;6191133;23;20667;-95
2021/01/28 09:31:24;;;;;;;4.43;4.13;;;10.70;99.90;;;;;;6196131;23;20171;-96
2021/01/28 09:33:50;;;;;;;4.30;4.10;;;10.70;99.90;;;;;;6199148;23;20175;-95
2021/01/28 09:36:21;;;;;;;4.83;4.37;;;10.90;99.90;;;;;;6196490;23;20172;-94
2021/01/28 09:39:04;;;;;;;3.80;3.50;;;10.80;99.90;;;;;;6192313;23;20210;-95
2021/01/28 09:41:36;;;;;;;3.40;3.20;;;10.90;99.90;;;;;;6198712;22;20291;-94
2021/01/28 09:44:20;;;;;;;4.00;3.70;;;11.10;99.90;;;;;;6228226;23;20273;-95
2021/01/28 09:47:09;;;;;;;2.93;2.70;;;11.10;99.90;;;;;;6225313;23;20201;-95
2021/01/28 09:49:36;;;;;;;2.87;2.67;;;11.10;99.90;;;;;;6220884;22;20218;-95
2021/01/28 09:52:02;;;;;;;2.90;2.80;;;11.10;99.90;;;;;;6221768;23;20619;-95
2021/01/28 09:54:33;;;;;;;3.10;2.90;;;11.20;99.90;;;;;;6218014;23;20273;-94
2021/01/28 09:57:00;;;;;;;3.47;3.23;;;11.20;99.90;;;;;;6217716;23;20202;-93
2021/01/28 09:59:27;;;;;;;3.27;3.07;;;11.10;99.90;;;;;;6217900;23;20163;-93
2021/01/28 10:01:55;;;;;;;3.37;3.17;;;11.10;99.90;;;;;;6217504;23;20193;-95
2021/01/28 10:04:22;;;;;;;3.67;3.40;;;11.10;99.90;;;;;;6217750;23;20196;-95
2021/01/28 10:06:48;;;;;;;3.73;3.43;;;11.10;99.90;;;;;;6217918;23;20171;-95
2021/01/28 10:09:15;;;;;;;7.73;4.60;;;11.00;99.90;;;;;;6218115;23;20155;-96
2021/01/28 10:11:42;;;;;;;6.80;5.20;;;11.00;99.90;;;;;;6217887;23;20249;-94
2021/01/28 10:14:20;;;;;;;6.03;5.43;;;11.00;99.90;;;;;;6217888;22;20178;-93
2021/01/28 11:20:15;;;;;;;9.63;7.50;;;11.60;99.90;;;;;;6195848;22;20197;-96
2021/01/28 12:50:18;;;;;;;1.73;1.60;;;12.60;99.90;;;;;;6164189;23;20209;-94
2021/01/28 12:52:45;;;;;;;4.37;2.00;;;12.60;99.90;;;;;;6215491;23;20251;-96
2021/01/28 12:55:39;;;;;;;1.90;1.47;;;12.60;99.90;;;;;;6225850;22;20211;-96
2021/01/28 13:27:32;;;;;;;8.83;2.50;;;12.10;99.90;;;;;;6229042;23;20642;-96
2021/01/28 15:08:01;;;;;;;11.77;3.03;;;12.30;99.90;;;;;;6229914;23;20266;-96
2021/01/28 15:10:27;;;;;;;15.57;3.17;;;12.30;99.90;;;;;;6220430;23;20201;-95
2021/01/28 15:12:54;;;;;;;16.27;3.30;;;12.30;99.90;;;;;;6219187;23;20175;-94
2021/01/28 15:15:20;;;;;;;17.43;3.77;;;12.40;99.90;;;;;;6217188;23;20203;-94
2021/01/28 15:17:47;;;;;;;9.83;3.07;;;12.40;99.90;;;;;;6217518;23;20273;-95
2021/01/28 15:20:15;;;;;;;14.30;3.03;;;12.40;99.90;;;;;;6218746;23;20196;-94
2021/01/28 15:22:41;;;;;;;10.60;3.43;;;12.30;99.90;;;;;;6220086;23;20191;-94
2021/01/28 15:25:08;;;;;;;12.37;4.43;;;12.40;99.90;;;;;;6218520;23;20197;-96
2021/01/28 15:27:36;;;;;;;12.50;3.47;;;12.30;99.90;;;;;;6218423;23;20246;-94
2021/01/28 15:30:05;;;;;;;12.93;3.40;;;12.30;99.90;;;;;;6219262;23;20174;-96
2021/01/28 15:32:31;;;;;;;14.03;3.60;;;12.50;99.90;;;;;;6220205;23;20245;-95
2021/01/28 15:34:59;;;;;;;14.23;3.80;;;12.50;99.90;;;;;;6219398;23;20226;-95
2021/01/28 15:37:25;;;;;;;13.77;4.20;;;12.50;99.90;;;;;;6219189;23;20218;-95
2021/01/28 15:39:54;;;;;;;13.43;3.67;;;12.40;99.90;;;;;;6193019;23;20182;-96
2021/01/28 15:42:21;;;;;;;18.67;3.83;;;12.40;99.90;;;;;;6218832;23;20172;-96
2021/01/28 15:44:47;;;;;;;12.97;3.40;;;12.40;99.90;;;;;;6218640;23;20247;-95
2021/01/28 15:47:14;;;;;;;10.90;3.90;;;12.40;99.90;;;;;;6219305;23;20199;-95
2021/01/28 15:49:40;;;;;;;12.23;4.17;;;12.40;99.90;;;;;;6219716;23;20222;-94
2021/01/28 15:52:08;;;;;;;14.00;3.73;;;12.60;99.90;;;;;;6219049;23;20197;-95
2021/01/28 15:54:34;;;;;;;17.20;4.07;;;12.40;99.90;;;;;;6217401;23;20242;-96
2021/01/28 15:57:00;;;;;;;17.73;4.37;;;12.40;99.90;;;;;;6217860;23;20171;-94
2021/01/28 15:59:27;;;;;;;16.37;3.83;;;12.50;99.90;;;;;;6217802;23;20175;-95
2021/01/28 16:01:54;;;;;;;15.53;3.73;;;12.60;99.90;;;;;;6218081;23;20273;-95
2021/01/28 16:04:20;;;;;;;15.03;3.93;;;12.70;99.90;;;;;;6217714;23;20266;-96
2021/01/28 16:07:10;;;;;;;16.77;4.17;;;12.60;99.90;;;;;;6195582;23;20181;-96
2021/01/28 16:17:04;;;;;;;14.10;4.43;;;12.40;99.90;;;;;;6244672;22;20239;-96
2021/01/28 16:32:19;;;;;;;13.47;3.63;;;12.60;99.90;;;;;;6201077;23;20208;-96
2021/01/28 16:34:46;;;;;;;19.60;4.57;;;12.50;99.90;;;;;;6198941;23;20222;-96
2021/01/28 16:37:16;;;;;;;13.80;4.65;;;12.50;99.90;;;;;;6199294;23;20485;-96
2021/01/28 16:39:55;;;;;;;17.53;4.63;;;12.50;99.90;;;;;;6209862;23;20220;-95
2021/01/28 16:43:01;;;;;;;15.73;4.57;;;12.50;99.90;;;;;;6215654;22;20232;-96
2021/01/28 16:45:30;;;;;;;20.53;4.33;;;12.50;99.90;;;;;;6238575;23;20196;-95
2021/01/28 16:48:06;;;;;;;18.03;4.20;;;12.40;99.90;;;;;;6239385;23;20169;-96
2021/01/28 16:57:22;;;;;;;14.93;3.40;;;12.50;99.90;;;;;;6232775;23;20183;-95
2021/01/28 17:02:38;;;;;;;15.07;4.37;;;12.50;99.90;;;;;;6214743;23;20171;-96
2021/01/28 17:05:06;;;;;;;17.70;4.83;;;12.50;99.90;;;;;;6236273;23;20195;-96
2021/01/28 17:07:33;;;;;;;14.40;3.97;;;12.40;99.90;;;;;;6232051;23;20184;-96
2021/01/28 17:10:01;;;;;;;23.53;4.87;;;12.40;99.90;;;;;;6229607;23;20180;-96
2021/01/28 17:12:29;;;;;;;16.00;3.93;;;12.40;99.90;;;;;;6230429;23;20177;-96
2021/01/28 17:14:57;;;;;;;18.33;5.17;;;12.40;99.90;;;;;;6223902;23;20203;-96
2021/01/28 17:17:25;;;;;;;19.17;4.93;;;12.40;99.90;;;;;;6226570;23;20290;-96
2021/01/28 17:19:53;;;;;;;18.10;4.83;;;12.40;99.90;;;;;;6230881;23;20205;-96
2021/01/28 17:22:21;;;;;;;22.90;4.77;;;12.40;99.90;;;;;;6229768;23;20171;-96
2021/01/28 17:24:48;;;;;;;22.80;5.60;;;12.20;99.90;;;;;;6232688;23;20594;-96
2021/01/28 17:27:15;;;;;;;17.20;4.60;;;12.20;99.90;;;;;;6231498;23;20174;-95
2021/01/28 17:29:42;;;;;;;22.17;5.07;;;12.20;99.90;;;;;;6232710;23;20172;-96
2021/01/28 17:32:33;;;;;;;24.57;4.63;;;12.00;99.90;;;;;;6231115;23;20237;-95
2021/01/28 17:35:02;;;;;;;26.97;6.10;;;12.10;99.90;;;;;;6232864;23;20199;-95
2021/01/28 17:37:30;;;;;;;24.27;5.27;;;12.10;99.90;;;;;;6230729;23;20195;-94
2021/01/28 17:39:57;;;;;;;22.30;5.33;;;12.10;99.90;;;;;;6226782;23;20194;-94
2021/01/28 17:42:24;;;;;;;21.93;5.37;;;12.10;99.90;;;;;;6227749;23;20211;-95
2021/01/28 17:44:53;;;;;;;17.53;5.83;;;12.10;99.90;;;;;;6208584;23;20250;-96
2021/01/28 17:47:20;;;;;;;19.43;5.27;;;12.10;99.90;;;;;;6234129;23;20179;-96
2021/01/28 17:50:06;;;;;;;18.30;4.80;;;12.00;99.90;;;;;;6231590;23;20170;-96
2021/01/28 17:52:32;;;;;;;20.70;4.50;;;12.10;99.90;;;;;;6235252;23;20175;-96
2021/01/28 17:55:02;;;;;;;18.50;4.70;;;12.20;99.90;;;;;;6237239;23;20199;-96
2021/01/28 17:57:30;;;;;;;16.27;4.40;;;12.10;99.90;;;;;;6231470;23;20202;-96
2021/01/28 18:00:11;;;;;;;17.60;5.27;;;12.00;99.90;;;;;;6209604;23;20187;-96
2021/01/28 18:02:42;;;;;;;19.17;4.63;;;12.00;99.90;;;;;;6208578;23;20206;-96
2021/01/28 18:05:13;;;;;;;20.47;5.50;;;12.00;99.90;;;;;;6233504;23;20194;-96
2021/01/28 18:07:49;;;;;;;20.20;6.30;;;12.10;99.90;;;;;;6233837;23;20178;-96
2021/01/28 18:10:21;;;;;;;26.70;5.53;;;12.00;99.90;;;;;;6230109;23;20209;-94
2021/01/28 18:13:07;;;;;;;19.70;5.17;;;12.00;99.90;;;;;;6230675;23;20197;-96
2021/01/28 18:31:50;;;;;;;28.50;6.20;;;11.60;99.90;;;;;;6238301;22;20221;-95
2021/01/28 18:34:17;;;;;;;21.63;5.97;;;11.60;99.90;;;;;;6243651;22;20187;-95
2021/01/28 18:36:48;;;;;;;31.70;6.73;;;11.60;99.90;;;;;;6243563;23;20167;-96
2021/01/28 18:39:18;;;;;;;30.73;7.47;;;11.50;99.90;;;;;;6229470;23;20201;-95
2021/01/28 19:43:00;;;;;;;22.17;6.17;;;11.20;99.90;;;;;;6201685;22;20536;-94
2021/01/28 19:45:29;;;;;;;16.30;5.90;;;11.10;99.90;;;;;;6186682;23;20207;-94
2021/01/28 20:04:50;;;;;;;30.00;7.70;;;11.00;99.90;;;;;;6287714;22;20702;-93
2021/01/28 20:07:20;;;;;;;21.13;6.17;;;11.00;99.90;;;;;;6278760;22;20236;-93
2021/01/28 20:09:46;;;;;;;25.80;7.47;;;11.10;99.90;;;;;;6280143;22;20169;-93
2021/01/28 20:12:13;;;;;;;22.97;7.33;;;11.20;99.90;;;;;;6280675;22;20237;-94
2021/01/28 20:14:39;;;;;;;27.50;6.93;;;11.10;99.90;;;;;;6279155;22;20253;-93
2021/01/28 20:17:05;;;;;;;27.13;6.83;;;11.10;99.90;;;;;;6279250;22;20161;-93
2021/01/28 20:19:31;;;;;;;32.40;10.37;;;11.10;99.90;;;;;;6279484;22;20173;-94
2021/01/28 20:21:59;;;;;;;21.30;6.90;;;11.20;99.90;;;;;;6279001;22;20170;-94
2021/01/28 20:24:25;;;;;;;31.33;7.10;;;11.20;99.90;;;;;;6279173;22;20597;-94
2021/01/28 20:26:52;;;;;;;22.30;6.13;;;11.30;99.90;;;;;;6278988;22;20172;-96
2021/01/28 20:29:19;;;;;;;24.97;6.70;;;11.30;99.90;;;;;;6280097;22;20176;-94
2021/01/28 20:31:46;;;;;;;32.13;8.10;;;11.30;99.90;;;;;;6279018;22;20170;-94
2021/01/28 20:34:13;;;;;;;23.53;7.60;;;11.40;99.90;;;;;;6278882;22;20223;-94
2021/01/28 20:36:39;;;;;;;27.60;8.03;;;11.30;99.90;;;;;;6278619;22;20173;-94
2021/01/28 20:39:07;;;;;;;33.37;8.83;;;11.30;99.90;;;;;;6279195;22;20200;-95
2021/01/28 20:41:33;;;;;;;36.03;8.50;;;11.40;99.90;;;;;;6279511;22;20211;-94
2021/01/28 20:44:00;;;;;;;35.80;8.73;;;11.30;99.90;;;;;;6279284;22;20161;-96
2021/01/28 20:46:26;;;;;;;30.43;8.17;;;11.30;99.90;;;;;;6279604;22;20176;-95
2021/01/28 20:48:53;;;;;;;36.20;8.10;;;11.10;99.90;;;;;;6252299;22;20174;-95
2021/01/28 20:51:19;;;;;;;33.30;7.97;;;11.20;99.90;;;;;;6278843;22;20161;-95
2021/01/28 20:53:46;;;;;;;34.03;7.63;;;11.20;99.90;;;;;;6278301;22;20245;-94
2021/01/28 20:56:13;;;;;;;31.23;7.60;;;11.10;99.90;;;;;;6279908;22;20193;-94
2021/01/28 20:58:40;;;;;;;35.07;7.73;;;11.20;99.90;;;;;;6278995;22;20189;-95
2021/01/28 21:01:06;;;;;;;38.93;9.13;;;11.30;99.90;;;;;;6278838;22;20170;-96
2021/01/28 21:03:33;;;;;;;33.13;7.70;;;11.40;99.90;;;;;;6279729;22;20170;-95
2021/01/28 21:05:59;;;;;;;31.07;7.40;;;11.30;99.90;;;;;;6282894;22;20223;-95
2021/01/28 21:08:25;;;;;;;39.73;8.27;;;11.20;99.90;;;;;;6284646;22;20170;-95
2021/01/28 21:10:52;;;;;;;29.20;7.73;;;11.20;99.90;;;;;;6259942;22;20182;-94
2021/01/28 21:13:19;;;;;;;27.97;8.37;;;11.30;99.90;;;;;;6285236;22;20180;-94
2021/01/28 21:15:46;;;;;;;32.03;8.90;;;11.30;99.90;;;;;;6282795;22;20494;-94
2021/01/28 21:18:12;;;;;;;26.83;8.40;;;11.30;99.90;;;;;;6257738;22;20205;-92
2021/01/28 21:20:39;;;;;;;29.43;8.93;;;11.10;99.90;;;;;;6281489;22;20237;-95
2021/01/28 21:23:05;;;;;;;36.87;8.93;;;11.10;99.90;;;;;;6279607;22;20261;-95
2021/01/28 21:25:32;;;;;;;27.90;7.80;;;11.00;99.90;;;;;;6278740;22;20197;-94
2021/01/28 21:28:01;;;;;;;26.73;8.40;;;11.00;99.90;;;;;;6279011;22;20240;-94
2021/01/28 21:30:31;;;;;;;36.20;8.63;;;11.00;99.90;;;;;;6280968;22;20166;-95
2021/01/28 21:32:58;;;;;;;31.37;8.90;;;10.90;99.90;;;;;;6279252;22;20641;-96
2021/01/28 21:35:28;;;;;;;23.87;8.50;;;11.00;99.90;;;;;;6277861;22;20233;-96
2021/01/28 21:37:54;;;;;;;30.47;8.27;;;10.90;99.90;;;;;;6277929;22;20551;-96
2021/01/28 21:40:23;;;;;;;22.63;8.23;;;10.90;99.90;;;;;;6279232;22;20180;-96
2021/01/28 21:42:50;;;;;;;18.23;8.87;;;10.90;99.90;;;;;;6278987;22;20176;-95
2021/01/28 21:45:19;;;;;;;25.10;10.47;;;11.00;99.90;;;;;;6278279;22;20193;-96
2021/01/28 21:47:47;;;;;;;22.50;9.37;;;11.00;99.90;;;;;;6278299;22;20226;-95
2021/01/28 21:50:14;;;;;;;18.00;9.47;;;11.10;99.90;;;;;;6277611;22;20180;-95
2021/01/28 21:52:41;;;;;;;28.27;10.00;;;11.00;99.90;;;;;;6278728;22;20241;-95
2021/01/28 21:55:09;;;;;;;20.87;9.73;;;10.90;99.90;;;;;;6278114;22;20271;-95
2021/01/28 21:57:35;;;;;;;20.17;10.27;;;10.90;99.90;;;;;;6278474;22;20267;-94
2021/01/28 22:00:04;;;;;;;21.57;9.93;;;10.90;99.90;;;;;;6278216;22;20173;-95
2021/01/28 22:02:30;;;;;;;30.10;11.80;;;10.80;99.90;;;;;;6278892;22;20170;-95
2021/01/28 22:04:58;;;;;;;21.27;9.93;;;10.80;99.90;;;;;;6278196;22;20742;-95
2021/01/28 22:07:24;;;;;;;27.53;11.13;;;10.90;99.90;;;;;;6277800;22;20248;-95
2021/01/28 22:09:50;;;;;;;29.13;10.70;;;10.90;99.90;;;;;;6278585;22;20216;-94
2021/01/28 22:12:19;;;;;;;27.50;10.60;;;11.00;99.90;;;;;;6278388;22;20166;-94
2021/01/28 22:14:46;;;;;;;23.87;9.87;;;10.90;99.90;;;;;;6277754;22;20197;-94
2021/01/28 22:17:12;;;;;;;31.93;10.57;;;10.80;99.90;;;;;;6277939;22;20173;-94
2021/01/28 22:19:38;;;;;;;40.53;16.10;;;10.70;99.90;;;;;;6276409;22;20390;-94
2021/01/28 22:22:06;;;;;;;32.60;13.40;;;10.80;99.90;;;;;;6277997;22;20213;-94
2021/01/28 22:24:32;;;;;;;39.03;14.07;;;10.80;99.90;;;;;;6278138;22;20234;-94
2021/01/28 22:26:59;;;;;;;33.53;12.63;;;10.80;99.90;;;;;;6278168;22;20260;-94
2021/01/28 22:29:25;;;;;;;33.47;11.93;;;10.80;99.90;;;;;;6277614;22;20173;-94
2021/01/28 22:31:52;;;;;;;39.80;12.37;;;10.70;99.90;;;;;;6277739;22;20173;-94
2021/01/28 22:34:18;;;;;;;38.13;9.83;;;10.70;99.90;;;;;;6277670;22;20193;-95
2021/01/28 22:36:45;;;;;;;40.70;10.77;;;10.80;99.90;;;;;;6251464;22;20176;-93
2021/01/28 22:39:13;;;;;;;40.33;10.13;;;10.80;99.90;;;;;;6278972;22;20204;-93
2021/01/28 22:41:39;;;;;;;36.67;9.50;;;10.80;99.90;;;;;;6278786;22;20171;-93
2021/01/28 22:44:06;;;;;;;36.80;10.23;;;10.70;99.90;;;;;;6278279;22;20200;-93
2021/01/28 22:46:32;;;;;;;32.57;9.50;;;10.80;99.90;;;;;;6277674;22;20175;-93
2021/01/28 22:48:59;;;;;;;32.23;9.30;;;10.90;99.90;;;;;;6278216;22;20542;-93
2021/01/28 22:51:25;;;;;;;44.43;10.20;;;10.80;99.90;;;;;;6277850;22;20176;-93
2021/01/28 22:53:52;;;;;;;42.20;9.13;;;10.90;99.90;;;;;;6277843;22;20536;-93
2021/01/28 22:56:19;;;;;;;32.93;8.53;;;10.90;99.90;;;;;;6279009;22;20291;-94
2021/01/28 22:58:46;;;;;;;33.00;9.43;;;10.80;99.90;;;;;;6277880;22;20211;-93
2021/01/28 23:01:12;;;;;;;37.83;9.17;;;10.90;99.90;;;;;;6251218;22;20177;-93
2021/01/28 23:03:41;;;;;;;38.77;7.30;;;10.90;99.90;;;;;;6277766;22;20241;-94
2021/01/28 23:06:08;;;;;;;33.97;7.30;;;10.90;99.90;;;;;;6277508;22;20254;-93
2021/01/28 23:08:35;;;;;;;29.03;7.90;;;10.90;99.90;;;;;;6278121;22;20598;-93
2021/01/28 23:11:05;;;;;;;31.40;5.90;;;10.90;99.90;;;;;;6277799;22;20617;-93
2021/01/28 23:13:33;;;;;;;20.97;5.63;;;10.90;99.90;;;;;;6278101;22;20541;-93
2021/01/28 23:16:00;;;;;;;22.17;5.40;;;10.90;99.90;;;;;;6277524;22;20189;-93
2021/01/28 23:18:29;;;;;;;24.00;6.13;;;10.90;99.90;;;;;;6277673;22;20197;-93
2021/01/28 23:21:00;;;;;;;20.37;4.90;;;10.90;99.90;;;;;;6278931;22;20161;-92
2021/01/28 23:23:29;;;;;;;19.20;4.90;;;10.90;99.90;;;;;;6277854;22;20194;-93
2021/01/28 23:25:55;;;;;;;25.57;5.60;;;10.80;99.90;;;;;;6278312;22;20282;-94
2021/01/28 23:28:22;;;;;;;13.33;4.07;;;10.70;99.90;;;;;;6277854;22;20255;-94
2021/01/28 23:30:49;;;;;;;18.30;4.53;;;10.80;99.90;;;;;;6278116;22;20197;-93
2021/01/28 23:33:16;;;;;;;16.10;4.33;;;10.80;99.90;;;;;;6277662;22;20166;-94
2021/01/28 23:35:44;;;;;;;15.90;4.20;;;10.90;99.90;;;;;;6278019;22;20190;-94
2021/01/28 23:38:10;;;;;;;14.43;3.87;;;10.90;99.90;;;;;;6277968;22;20209;-93
2021/01/28 23:40:37;;;;;;;12.13;3.30;;;10.90;99.90;;;;;;6279303;22;20161;-94
2021/01/28 23:43:05;;;;;;;12.97;3.80;;;10.90;99.90;;;;;;6280562;22;20188;-94
2021/01/28 23:45:32;;;;;;;11.17;3.70;;;10.80;99.90;;;;;;6279419;22;20668;-93
2021/01/28 23:48:00;;;;;;;13.07;3.43;;;10.80;99.90;;;;;;6279420;22;20177;-93
2021/01/28 23:50:27;;;;;;;7.17;3.90;;;10.80;99.90;;;;;;6279744;22;20602;-93
2021/01/28 23:52:53;;;;;;;8.97;4.30;;;10.80;99.90;;;;;;6280102;22;20227;-94
2021/01/28 23:55:20;;;;;;;7.67;4.27;;;10.70;99.90;;;;;;6278815;22;20189;-93
2021/01/28 23:57:47;;;;;;;10.87;4.53;;;10.70;99.90;;;;;;6279327;22;20277;-94
